地図

経路データ

SID SEASON NUMBER BASIN SUBBASIN NAME ISO_TIME NATURE LAT LON WMO_WIND WMO_PRES WMO_AGENCY TRACK_TYPE DIST2LAND LANDFALL IFLAG USA_AGENCY USA_ATCF_ID USA_LAT USA_LON USA_RECORD USA_STATUS USA_WIND USA_PRES USA_SSHS USA_R34_NE USA_R34_SE USA_R34_SW USA_R34_NW USA_R50_NE USA_R50_SE USA_R50_SW USA_R50_NW USA_R64_NE USA_R64_SE USA_R64_SW USA_R64_NW USA_POCI USA_ROCI USA_RMW USA_EYE TOKYO_LAT TOKYO_LON TOKYO_GRADE TOKYO_WIND TOKYO_PRES TOKYO_R50_DIR TOKYO_R50_LONG TOKYO_R50_SHORT TOKYO_R30_DIR TOKYO_R30_LONG TOKYO_R30_SHORT TOKYO_LAND CMA_LAT CMA_LON CMA_CAT CMA_WIND CMA_PRES HKO_LAT HKO_LON HKO_CAT HKO_WIND HKO_PRES NEWDELHI_LAT NEWDELHI_LON NEWDELHI_GRADE NEWDELHI_WIND NEWDELHI_PRES NEWDELHI_CI NEWDELHI_DP NEWDELHI_POCI REUNION_LAT REUNION_LON REUNION_TYPE REUNION_WIND REUNION_PRES REUNION_TNUM REUNION_CI REUNION_RMW REUNION_R34_NE REUNION_R34_SE REUNION_R34_SW REUNION_R34_NW REUNION_R50_NE REUNION_R50_SE REUNION_R50_SW REUNION_R50_NW REUNION_R64_NE REUNION_R64_SE REUNION_R64_SW REUNION_R64_NW BOM_LAT BOM_LON BOM_TYPE BOM_WIND BOM_PRES BOM_TNUM BOM_CI BOM_RMW BOM_R34_NE BOM_R34_SE BOM_R34_SW BOM_R34_NW BOM_R50_NE BOM_R50_SE BOM_R50_SW BOM_R50_NW BOM_R64_NE BOM_R64_SE BOM_R64_SW BOM_R64_NW BOM_ROCI BOM_POCI BOM_EYE BOM_POS_METHOD BOM_PRES_METHOD NADI_LAT NADI_LON NADI_CAT NADI_WIND NADI_PRES WELLINGTON_LAT WELLINGTON_LON WELLINGTON_WIND WELLINGTON_PRES DS824_LAT DS824_LON DS824_STAGE DS824_WIND DS824_PRES TD9636_LAT TD9636_LON TD9636_STAGE TD9636_WIND TD9636_PRES TD9635_LAT TD9635_LON TD9635_WIND TD9635_PRES TD9635_ROCI NEUMANN_LAT NEUMANN_LON NEUMANN_CLASS NEUMANN_WIND NEUMANN_PRES MLC_LAT MLC_LON MLC_CLASS MLC_WIND MLC_PRES USA_GUST BOM_GUST BOM_GUST_PER REUNION_GUST REUNION_GUST_PER USA_SEAHGT USA_SEARAD_NE USA_SEARAD_SE USA_SEARAD_SW USA_SEARAD_NW STORM_SPEED STORM_DIR
1889345S12051 1890 41 SI MM NOT_NAMED 1889-12-11 06:00:00 NR -12.3500 51.4500 reunion main 190 166 _____O____O___ -1 -12.3000 51.7000 99 9.90000 -12.4000 51.2000 7 3 241
1889345S12051 1890 41 SI MM NOT_NAMED 1889-12-11 09:00:00 NR -12.4303 51.3055 main 166 151 _____P____P___ -1 -12.3102 51.6606 99 -12.5503 50.9504 7 3 241
1889345S12051 1890 41 SI MM NOT_NAMED 1889-12-11 12:00:00 NR -12.5117 51.1586 main 151 127 _____P____P___ -1 -12.3230 51.6166 99 -12.7005 50.7006 7 3 240
1889345S12051 1890 41 SI MM NOT_NAMED 1889-12-11 15:00:00 NR -12.5957 51.0069 main 127 113 _____P____P___ -1 -12.3409 51.5634 99 -12.8504 50.4504 7 3 241
1889345S12051 1890 41 SI MM NOT_NAMED 1889-12-11 18:00:00 NR -12.6834 50.8483 main 103 93 _____P____O___ -1 -12.3668 51.4966 99 -13.0000 50.2000 7 4 244
1889345S12051 1890 41 SI MM NOT_NAMED 1889-12-11 21:00:00 NR -12.7517 50.6809 main 89 79 _____P____P___ -1 -12.4030 51.4114 99 -13.1004 49.9503 7 2 248
1889345S12051 1890 41 SI MM NOT_NAMED 1889-12-12 00:00:00 NR -12.7729 50.6164 main 79 79 _____P____P___ -1 -12.4522 51.3033 99 -13.2005 49.7004 7 1 250
1889345S12051 1890 41 SI MM NOT_NAMED 1889-12-12 03:00:00 NR -12.7781 50.5953 main 79 79 _____P____P___ -1 -12.5170 51.1677 99 -13.3004 49.4503 7 0 0
1889345S12051 1890 41 SI MM NOT_NAMED 1889-12-12 06:00:00 NR -12.7600 50.6400 reunion main 79 79 _____O____O___ -1 -12.6000 51.0000 99 9.90000 -13.4000 49.2000 7 2 69
1889345S12051 1890 41 SI MM NOT_NAMED 1889-12-12 09:00:00 NR -12.7024 50.7977 main 103 79 _____P________ -1 -12.7024 50.7977 99 7 1 227
1889345S12051 1890 41 SI MM NOT_NAMED 1889-12-12 12:00:00 NR -12.8208 50.5675 main 79 44 _____P________ -1 -12.8208 50.5675 99 7 5 242
1889345S12051 1890 41 SI MM NOT_NAMED 1889-12-12 15:00:00 NR -12.9503 50.3182 main 43 21 _____P________ -1 -12.9503 50.3182 99 7 6 242
1889345S12051 1890 41 SI MM NOT_NAMED 1889-12-12 18:00:00 NR -13.0862 50.0588 main 21 0 _____P________ -1 -13.0862 50.0588 99 6 242
1889345S12051 1890 41 SI MM NOT_NAMED 1889-12-12 21:00:00 NR -13.2237 49.7982 main 0 0 _____P________ -1 -13.2237 49.7982 99 6 241
1889345S12051 1890 41 SI MM NOT_NAMED 1889-12-13 00:00:00 NR -13.3583 49.5455 main 0 0 _____P________ -1 -13.3583 49.5455 99 5 241
1889345S12051 1890 41 SI MM NOT_NAMED 1889-12-13 03:00:00 NR -13.4853 49.3098 main 0 0 _____P________ -1 -13.4853 49.3098 99 5 241
1889345S12051 1890 41 SI MM NOT_NAMED 1889-12-13 06:00:00 NR -13.6000 49.1000 reunion main 0 0 _____O________ -1 -13.6000 49.1000 99 9.90000 4 240
1889345S12051 1890 41 SI MM NOT_NAMED 1889-12-13 09:00:00 NR -13.6990 48.9231 main 0 0 _____P________ -1 -13.6990 48.9231 99 4 240
1889345S12051 1890 41 SI MM NOT_NAMED 1889-12-13 12:00:00 NR -13.7834 48.7769 main 0 0 _____P________ -1 -13.7834 48.7769 99 3 239
1889345S12051 1890 41 SI MM NOT_NAMED 1889-12-13 15:00:00 NR -13.8552 48.6570 main 0 0 _____P________ -1 -13.8552 48.6570 99 3 238
1889345S12051 1890 41 SI MM NOT_NAMED 1889-12-13 18:00:00 NR -13.9166 48.5592 main 0 0 _____P________ -1 -13.9166 48.5592 99 2 236
1889345S12051 1890 41 SI MM NOT_NAMED 1889-12-13 21:00:00 NR -13.9698 48.4790 main 0 0 _____P________ -1 -13.9698 48.4790 99 2 235
1889345S12051 1890 41 SI MM NOT_NAMED 1889-12-14 00:00:00 NR -14.0166 48.4120 main 0 0 _____P________ -1 -14.0166 48.4120 99 2 233
1889345S12051 1890 41 SI MM NOT_NAMED 1889-12-14 03:00:00 NR -14.0594 48.3538 main 0 0 _____P________ -1 -14.0594 48.3538 99 1 233
1889345S12051 1890 41 SI MM NOT_NAMED 1889-12-14 06:00:00 NR -14.1000 48.3000 reunion main 0 _____O________ -1 -14.1000 48.3000 99 9.90000 1 234

IBTrACS Databaseについて

本データベースは、米国NOAAが公開する1842年以降の世界の熱帯低気圧のベストトラックデータアーカイブInternational Best Track Archive for Climate Stewardship (IBTrACS)を、ウェブで閲覧しやすい形式に変換したものです。

最終更新日:2021-12-03